Time;durP1;ratioP1;P1;durP2;ratioP2;P2;SDS_P1;SDS_P2;PMS_P1;PMS_P2;Temp;Humidity;BMP_temperature;BMP_pressure;BME280_temperature;BME280_humidity;BME280_pressure;Samples;Min_cycle;Max_cycle;Signal;HPM_P1;HPM_P2
2023/10/03 00:00:54;;;;;;;67.57;18.70;;;;;;;;;;4994254;28;20023;-67
2023/10/03 00:03:19;;;;;;;75.93;17.73;;;;;;;;;;4993990;28;20080;-66
2023/10/03 00:05:46;;;;;;;71.50;18.13;;;;;;;;;;4994181;28;20019;-67
2023/10/03 00:08:13;;;;;;;60.63;17.15;;;;;;;;;;4994005;28;20445;-67
2023/10/03 00:10:39;;;;;;;63.95;17.30;;;;;;;;;;4993416;28;20056;-67
2023/10/03 00:13:08;;;;;;;61.05;18.02;;;;;;;;;;4993831;28;20101;-68
2023/10/03 00:15:34;;;;;;;54.30;16.25;;;;;;;;;;4994100;28;20053;-68
2023/10/03 00:17:59;;;;;;;42.67;14.98;;;;;;;;;;4993821;28;20018;-67
2023/10/03 00:20:24;;;;;;;42.15;15.32;;;;;;;;;;4993803;28;20018;-67
2023/10/03 00:22:50;;;;;;;41.55;15.95;;;;;;;;;;4993756;28;20089;-67
2023/10/03 00:25:19;;;;;;;34.78;14.60;;;;;;;;;;4993660;28;20482;-67
2023/10/03 00:27:46;;;;;;;37.78;14.52;;;;;;;;;;4993757;28;20478;-67
2023/10/03 00:30:12;;;;;;;41.08;14.65;;;;;;;;;;4994001;28;20073;-67
2023/10/03 00:32:37;;;;;;;33.15;13.75;;;;;;;;;;4993698;28;20474;-67
2023/10/03 00:35:03;;;;;;;52.70;15.55;;;;;;;;;;4993725;28;20027;-68
2023/10/03 00:37:29;;;;;;;64.18;16.50;;;;;;;;;;4993624;28;20029;-67
2023/10/03 00:39:57;;;;;;;55.65;17.23;;;;;;;;;;4993618;28;20467;-67
2023/10/03 00:42:22;;;;;;;70.70;18.25;;;;;;;;;;4993569;28;20103;-68
2023/10/03 00:44:48;;;;;;;63.17;16.53;;;;;;;;;;4993609;28;20051;-68
2023/10/03 00:47:14;;;;;;;60.78;16.55;;;;;;;;;;4993485;28;20029;-68
2023/10/03 00:49:40;;;;;;;60.75;16.50;;;;;;;;;;4993590;28;20101;-68
2023/10/03 00:52:06;;;;;;;62.85;17.30;;;;;;;;;;4993517;28;20018;-68
2023/10/03 00:54:32;;;;;;;59.83;16.83;;;;;;;;;;4993432;28;20026;-68
2023/10/03 00:56:57;;;;;;;61.92;18.08;;;;;;;;;;4993431;28;20501;-67
2023/10/03 00:59:23;;;;;;;68.67;16.70;;;;;;;;;;4993499;28;20483;-68
2023/10/03 01:01:49;;;;;;;51.55;16.27;;;;;;;;;;4993691;28;20259;-68
2023/10/03 01:04:19;;;;;;;49.92;14.57;;;;;;;;;;4993670;28;20030;-67
2023/10/03 01:06:45;;;;;;;41.90;14.00;;;;;;;;;;4993378;28;20026;-67
2023/10/03 01:09:20;;;;;;;56.35;16.80;;;;;;;;;;4993389;28;20050;-68
2023/10/03 01:11:47;;;;;;;48.65;15.45;;;;;;;;;;4993319;28;20019;-67
2023/10/03 01:14:15;;;;;;;41.83;15.57;;;;;;;;;;4993384;28;20019;-67
2023/10/03 01:16:41;;;;;;;52.22;16.88;;;;;;;;;;4993518;28;20026;-67
2023/10/03 01:21:40;;;;;;;29.45;12.93;;;;;;;;;;4993494;28;20373;-67
2023/10/03 01:24:07;;;;;;;38.22;14.07;;;;;;;;;;4996201;28;20382;-67
2023/10/03 01:26:32;;;;;;;36.67;12.13;;;;;;;;;;4996698;28;20014;-67
2023/10/03 01:28:58;;;;;;;33.08;13.52;;;;;;;;;;4996646;28;20037;-67
2023/10/03 01:31:24;;;;;;;31.95;12.00;;;;;;;;;;4996933;28;20037;-67
2023/10/03 01:33:49;;;;;;;27.77;12.05;;;;;;;;;;4996525;28;20097;-67
2023/10/03 01:36:14;;;;;;;28.92;10.38;;;;;;;;;;4996450;28;20030;-67
2023/10/03 01:38:42;;;;;;;33.00;10.50;;;;;;;;;;4996408;28;20026;-67
2023/10/03 01:41:07;;;;;;;26.55;11.05;;;;;;;;;;4996460;28;20026;-67
2023/10/03 01:43:33;;;;;;;26.95;10.90;;;;;;;;;;4996369;28;20018;-67
2023/10/03 01:45:58;;;;;;;31.70;11.38;;;;;;;;;;4995200;28;20472;-67
2023/10/03 01:48:24;;;;;;;25.90;11.17;;;;;;;;;;4996554;28;20030;-67
2023/10/03 01:50:51;;;;;;;31.92;11.70;;;;;;;;;;4996494;28;20287;-67
2023/10/03 01:53:17;;;;;;;27.75;9.98;;;;;;;;;;4996165;28;20025;-67
2023/10/03 01:55:43;;;;;;;23.02;10.48;;;;;;;;;;4996101;28;20018;-67
2023/10/03 01:58:09;;;;;;;25.10;10.43;;;;;;;;;;4996320;28;20026;-67
2023/10/03 02:00:36;;;;;;;26.87;9.13;;;;;;;;;;4996143;28;20076;-67
2023/10/03 02:03:12;;;;;;;32.35;10.70;;;;;;;;;;4996100;28;20255;-68
2023/10/03 02:05:38;;;;;;;30.13;10.60;;;;;;;;;;4996063;28;20017;-67
2023/10/03 02:08:25;;;;;;;27.80;11.07;;;;;;;;;;4996241;28;20022;-67
2023/10/03 02:10:50;;;;;;;25.05;9.77;;;;;;;;;;4995352;28;20164;-67
2023/10/03 02:13:17;;;;;;;31.45;10.07;;;;;;;;;;4995823;28;20033;-67
2023/10/03 02:15:43;;;;;;;21.48;10.43;;;;;;;;;;4996026;28;20390;-67
2023/10/03 02:18:12;;;;;;;18.98;9.45;;;;;;;;;;4995745;28;20022;-67
2023/10/03 02:20:47;;;;;;;20.98;8.98;;;;;;;;;;4995770;28;20015;-67
2023/10/03 02:23:17;;;;;;;26.10;9.57;;;;;;;;;;4995735;28;20010;-67
2023/10/03 02:25:43;;;;;;;27.20;9.90;;;;;;;;;;4995874;28;20459;-67
2023/10/03 02:28:08;;;;;;;23.60;10.20;;;;;;;;;;4995564;28;20068;-67
2023/10/03 02:30:34;;;;;;;29.08;9.75;;;;;;;;;;4995688;28;20069;-67
2023/10/03 02:33:09;;;;;;;20.98;9.85;;;;;;;;;;4995776;28;20026;-67
2023/10/03 02:35:35;;;;;;;21.27;9.73;;;;;;;;;;4995572;28;20497;-67
2023/10/03 02:38:03;;;;;;;23.67;9.40;;;;;;;;;;4995614;28;20030;-67
2023/10/03 02:40:30;;;;;;;27.30;9.70;;;;;;;;;;4995583;28;20105;-67
2023/10/03 02:42:55;;;;;;;21.33;9.40;;;;;;;;;;4995512;28;20473;-67
2023/10/03 02:45:25;;;;;;;25.17;8.73;;;;;;;;;;4995237;28;20110;-67
2023/10/03 02:47:51;;;;;;;20.35;8.57;;;;;;;;;;4995435;28;20026;-67
2023/10/03 02:50:17;;;;;;;20.50;8.85;;;;;;;;;;4995154;28;20489;-67
2023/10/03 02:52:45;;;;;;;23.10;10.90;;;;;;;;;;4995128;28;20029;-67
2023/10/03 02:55:13;;;;;;;21.85;9.00;;;;;;;;;;4995002;28;20475;-67
2023/10/03 02:57:40;;;;;;;26.65;9.98;;;;;;;;;;4995202;28;20022;-67
2023/10/03 03:00:15;;;;;;;27.33;9.90;;;;;;;;;;4995153;28;20050;-67
2023/10/03 03:02:47;;;;;;;20.88;9.45;;;;;;;;;;4995201;28;20523;-67
2023/10/03 03:05:15;;;;;;;23.40;8.68;;;;;;;;;;4993622;28;20038;-67
2023/10/03 03:07:41;;;;;;;19.85;8.77;;;;;;;;;;4995087;28;20376;-67
2023/10/03 03:10:07;;;;;;;21.75;8.32;;;;;;;;;;4994630;28;20053;-67
2023/10/03 03:12:35;;;;;;;23.40;9.15;;;;;;;;;;4995055;28;20387;-67
2023/10/03 03:15:00;;;;;;;18.98;8.68;;;;;;;;;;4995001;28;20437;-67
2023/10/03 03:17:26;;;;;;;16.95;8.18;;;;;;;;;;4994544;28;20118;-67
2023/10/03 03:19:54;;;;;;;19.23;8.77;;;;;;;;;;4994879;28;20030;-67
2023/10/03 03:22:21;;;;;;;25.02;9.50;;;;;;;;;;4994818;28;20029;-67
2023/10/03 03:24:51;;;;;;;20.70;9.32;;;;;;;;;;4994547;28;20046;-67
2023/10/03 03:27:17;;;;;;;21.35;9.65;;;;;;;;;;4994989;28;20027;-67
2023/10/03 03:30:03;;;;;;;23.60;9.27;;;;;;;;;;4994735;28;20037;-67
2023/10/03 03:32:27;;;;;;;28.33;9.65;;;;;;;;;;4994291;28;20023;-67
2023/10/03 03:34:52;;;;;;;23.07;8.87;;;;;;;;;;4994652;28;20033;-67
2023/10/03 03:37:21;;;;;;;21.35;9.07;;;;;;;;;;4994237;28;20283;-67
2023/10/03 03:40:10;;;;;;;21.92;8.93;;;;;;;;;;4994319;28;20018;-67
2023/10/03 03:42:37;;;;;;;23.08;8.63;;;;;;;;;;4994308;28;20022;-67
2023/10/03 03:45:02;;;;;;;17.70;8.15;;;;;;;;;;4994091;28;20471;-67
2023/10/03 03:47:27;;;;;;;19.13;8.35;;;;;;;;;;4993971;28;20029;-67
2023/10/03 03:49:53;;;;;;;19.07;9.07;;;;;;;;;;4994177;28;20034;-67
2023/10/03 03:52:18;;;;;;;31.47;10.17;;;;;;;;;;4994100;28;20022;-67
2023/10/03 03:54:43;;;;;;;23.90;9.10;;;;;;;;;;4994232;28;20541;-67
2023/10/03 03:57:09;;;;;;;22.10;9.48;;;;;;;;;;4994217;28;20023;-67
2023/10/03 03:59:35;;;;;;;20.60;9.27;;;;;;;;;;4994104;28;20478;-67
2023/10/03 04:02:01;;;;;;;19.85;8.55;;;;;;;;;;4994319;28;20433;-67
2023/10/03 04:04:26;;;;;;;21.52;9.18;;;;;;;;;;4994258;28;20046;-67
2023/10/03 04:06:52;;;;;;;23.88;9.32;;;;;;;;;;4993941;28;20382;-67
2023/10/03 04:09:17;;;;;;;24.17;8.68;;;;;;;;;;4993949;28;20077;-67
2023/10/03 04:11:43;;;;;;;27.20;9.45;;;;;;;;;;4994168;28;20019;-67
2023/10/03 04:14:08;;;;;;;22.30;9.18;;;;;;;;;;4993905;28;20451;-67
2023/10/03 04:16:39;;;;;;;17.50;9.07;;;;;;;;;;4993917;28;20030;-67
2023/10/03 04:19:06;;;;;;;21.93;9.10;;;;;;;;;;4993860;28;20177;-67
2023/10/03 04:21:32;;;;;;;23.58;8.90;;;;;;;;;;4994078;28;20042;-67
2023/10/03 04:23:59;;;;;;;21.42;8.52;;;;;;;;;;4992559;28;20018;-67
2023/10/03 04:26:25;;;;;;;17.85;8.52;;;;;;;;;;4994023;28;20477;-67
2023/10/03 04:28:50;;;;;;;24.85;9.55;;;;;;;;;;4993992;28;20030;-67
2023/10/03 04:31:15;;;;;;;24.07;9.07;;;;;;;;;;4993708;28;20030;-67
2023/10/03 04:33:41;;;;;;;33.73;9.13;;;;;;;;;;4993738;28;20382;-67
2023/10/03 04:36:09;;;;;;;21.88;9.27;;;;;;;;;;4993946;28;20034;-67
2023/10/03 04:38:34;;;;;;;26.13;8.88;;;;;;;;;;4993713;28;20018;-67
2023/10/03 04:41:00;;;;;;;20.10;8.57;;;;;;;;;;4993918;28;20021;-67
2023/10/03 04:43:29;;;;;;;23.77;9.45;;;;;;;;;;4993913;28;20019;-67
2023/10/03 04:45:54;;;;;;;20.95;8.98;;;;;;;;;;4993481;28;20027;-67
2023/10/03 04:48:19;;;;;;;20.27;8.17;;;;;;;;;;4993822;28;20034;-67
2023/10/03 04:50:44;;;;;;;21.27;8.97;;;;;;;;;;4993692;28;20271;-67
2023/10/03 04:53:14;;;;;;;24.60;9.07;;;;;;;;;;4993763;28;20252;-67
2023/10/03 04:55:40;;;;;;;18.98;8.60;;;;;;;;;;4993716;28;20531;-67
2023/10/03 04:58:05;;;;;;;26.35;9.02;;;;;;;;;;4996271;28;20116;-67
2023/10/03 05:00:30;;;;;;;21.98;8.35;;;;;;;;;;4997195;28;20097;-67
2023/10/03 05:02:56;;;;;;;25.08;9.88;;;;;;;;;;4997469;28;20053;-67
2023/10/03 05:05:23;;;;;;;22.88;8.40;;;;;;;;;;4997093;28;20437;-67
2023/10/03 05:07:49;;;;;;;22.60;9.00;;;;;;;;;;4997069;28;20506;-67
2023/10/03 05:10:14;;;;;;;21.00;9.32;;;;;;;;;;4996918;28;20050;-67
2023/10/03 05:12:40;;;;;;;21.75;9.27;;;;;;;;;;4997011;28;20027;-67
2023/10/03 05:15:07;;;;;;;21.48;8.75;;;;;;;;;;4996966;28;20022;-67
2023/10/03 05:17:32;;;;;;;22.17;9.65;;;;;;;;;;4995965;28;20034;-67
2023/10/03 05:19:58;;;;;;;23.40;9.82;;;;;;;;;;4997112;28;20025;-67
2023/10/03 05:22:25;;;;;;;19.10;8.75;;;;;;;;;;4997088;28;20072;-67
2023/10/03 05:24:50;;;;;;;29.95;9.52;;;;;;;;;;4996729;28;20018;-67
2023/10/03 05:27:16;;;;;;;20.17;8.70;;;;;;;;;;4996764;28;20034;-67
2023/10/03 05:29:43;;;;;;;17.30;7.75;;;;;;;;;;4997049;28;20026;-67
2023/10/03 05:32:08;;;;;;;20.88;9.27;;;;;;;;;;4996594;28;20098;-67
2023/10/03 05:34:33;;;;;;;23.13;8.15;;;;;;;;;;4996675;28;20101;-67
2023/10/03 05:36:59;;;;;;;24.95;9.38;;;;;;;;;;4996466;28;20093;-67
2023/10/03 05:39:26;;;;;;;19.43;9.20;;;;;;;;;;4996529;28;20128;-67
2023/10/03 05:41:56;;;;;;;19.60;9.20;;;;;;;;;;4996703;28;20696;-67
2023/10/03 05:44:21;;;;;;;22.67;9.35;;;;;;;;;;4996643;28;20390;-67
2023/10/03 05:46:49;;;;;;;21.10;8.88;;;;;;;;;;4996390;28;20018;-67
2023/10/03 05:49:14;;;;;;;20.98;9.07;;;;;;;;;;4996572;28;20486;-67
2023/10/03 05:51:40;;;;;;;21.17;8.87;;;;;;;;;;4996344;28;20030;-67
2023/10/03 05:54:05;;;;;;;20.48;8.77;;;;;;;;;;4996476;28;20064;-67
2023/10/03 05:56:31;;;;;;;20.08;9.02;;;;;;;;;;4996205;28;20463;-67
2023/10/03 05:58:56;;;;;;;19.33;8.80;;;;;;;;;;4996081;28;20030;-67
2023/10/03 06:01:21;;;;;;;24.07;8.57;;;;;;;;;;4996240;28;20018;-67
2023/10/03 06:03:46;;;;;;;18.03;9.03;;;;;;;;;;4996070;28;20018;-67
2023/10/03 06:06:11;;;;;;;24.80;8.77;;;;;;;;;;4996059;28;20331;-67
2023/10/03 06:08:37;;;;;;;16.60;8.37;;;;;;;;;;4995228;28;20383;-67
2023/10/03 06:11:03;;;;;;;25.60;9.77;;;;;;;;;;4996078;28;20287;-67
2023/10/03 06:13:28;;;;;;;18.02;8.07;;;;;;;;;;4996152;28;20026;-67
2023/10/03 06:15:54;;;;;;;20.17;8.47;;;;;;;;;;4995855;28;20463;-67
2023/10/03 06:18:19;;;;;;;17.47;8.13;;;;;;;;;;4995696;28;20275;-67
2023/10/03 06:20:44;;;;;;;17.98;8.30;;;;;;;;;;4995757;28;20410;-67
2023/10/03 06:23:09;;;;;;;20.92;8.68;;;;;;;;;;4995728;28;20026;-67
2023/10/03 06:25:35;;;;;;;21.30;8.83;;;;;;;;;;4995946;28;20042;-67
2023/10/03 06:28:01;;;;;;;25.65;9.23;;;;;;;;;;4995901;28;20081;-67
2023/10/03 06:30:26;;;;;;;30.08;8.35;;;;;;;;;;4995567;28;20030;-67
2023/10/03 06:32:52;;;;;;;22.52;8.93;;;;;;;;;;4995488;28;20037;-67
2023/10/03 06:35:18;;;;;;;19.60;8.03;;;;;;;;;;4995440;28;20022;-67
2023/10/03 06:37:43;;;;;;;19.65;8.25;;;;;;;;;;4995335;28;20280;-66
2023/10/03 06:40:09;;;;;;;16.67;7.80;;;;;;;;;;4995616;28;20022;-66
2023/10/03 06:42:35;;;;;;;17.02;7.93;;;;;;;;;;4995604;28;20026;-67
2023/10/03 06:45:09;;;;;;;22.02;8.50;;;;;;;;;;4995288;28;20467;-67
2023/10/03 06:47:35;;;;;;;27.15;9.50;;;;;;;;;;4995518;28;20482;-66
2023/10/03 06:50:00;;;;;;;19.20;7.80;;;;;;;;;;4995455;28;20081;-67
2023/10/03 06:52:26;;;;;;;19.43;6.77;;;;;;;;;;4995165;28;20026;-66
2023/10/03 06:54:51;;;;;;;17.90;7.40;;;;;;;;;;4994994;28;20267;-67
2023/10/03 06:57:16;;;;;;;22.00;8.30;;;;;;;;;;4994997;28;20030;-66
2023/10/03 06:59:41;;;;;;;18.80;7.27;;;;;;;;;;4995033;28;20099;-67
2023/10/03 07:02:08;;;;;;;14.43;6.70;;;;;;;;;;4994952;28;20474;-67
2023/10/03 07:04:33;;;;;;;18.58;6.93;;;;;;;;;;4995207;28;20022;-66
2023/10/03 07:06:58;;;;;;;15.63;6.93;;;;;;;;;;4995128;28;20014;-67
2023/10/03 07:09:23;;;;;;;19.53;6.63;;;;;;;;;;4994708;28;20042;-67
2023/10/03 07:11:49;;;;;;;22.80;7.80;;;;;;;;;;4994893;28;20019;-67
2023/10/03 07:14:16;;;;;;;14.50;6.32;;;;;;;;;;4994699;28;20315;-67
2023/10/03 07:16:41;;;;;;;21.85;7.35;;;;;;;;;;4994680;28;20093;-67
2023/10/03 07:19:10;;;;;;;17.92;7.35;;;;;;;;;;4994849;28;20117;-67
2023/10/03 07:21:36;;;;;;;19.70;8.05;;;;;;;;;;4993970;28;20096;-67
2023/10/03 07:24:01;;;;;;;18.58;7.63;;;;;;;;;;4994824;28;20458;-67
2023/10/03 07:26:27;;;;;;;15.95;6.55;;;;;;;;;;4994769;28;20387;-67
2023/10/03 07:28:57;;;;;;;19.48;7.63;;;;;;;;;;4994459;28;20030;-67
2023/10/03 07:31:22;;;;;;;18.92;6.68;;;;;;;;;;4994472;28;20499;-68
2023/10/03 07:33:47;;;;;;;18.80;7.07;;;;;;;;;;4994440;28;20070;-67
2023/10/03 07:36:13;;;;;;;18.20;7.70;;;;;;;;;;4994644;28;20248;-67
2023/10/03 07:38:38;;;;;;;15.50;7.40;;;;;;;;;;4994229;28;20467;-67
2023/10/03 07:41:10;;;;;;;17.48;7.72;;;;;;;;;;4993372;28;20015;-67
2023/10/03 07:43:35;;;;;;;17.15;7.10;;;;;;;;;;4994310;28;20470;-67
2023/10/03 07:46:01;;;;;;;17.40;7.47;;;;;;;;;;4994212;28;20037;-67
2023/10/03 07:48:26;;;;;;;16.80;7.47;;;;;;;;;;4994424;28;20022;-67
2023/10/03 07:50:51;;;;;;;18.92;7.60;;;;;;;;;;4994175;28;20077;-67
2023/10/03 07:53:17;;;;;;;17.60;7.73;;;;;;;;;;4994327;28;20021;-67
2023/10/03 07:55:43;;;;;;;17.85;7.65;;;;;;;;;;4994257;28;20751;-67
2023/10/03 07:58:12;;;;;;;20.70;7.73;;;;;;;;;;4994226;28;20057;-67
2023/10/03 08:00:39;;;;;;;16.75;7.97;;;;;;;;;;4994010;28;20256;-67
2023/10/03 08:03:08;;;;;;;17.85;7.80;;;;;;;;;;4993963;28;20025;-67
2023/10/03 08:05:33;;;;;;;18.42;7.80;;;;;;;;;;4994229;28;20471;-67
2023/10/03 08:08:02;;;;;;;23.93;7.77;;;;;;;;;;4994232;28;20102;-67
2023/10/03 08:10:29;;;;;;;19.35;8.00;;;;;;;;;;4993098;28;20502;-67
2023/10/03 08:12:55;;;;;;;14.48;7.13;;;;;;;;;;4993396;28;20081;-67
2023/10/03 08:15:21;;;;;;;21.33;7.70;;;;;;;;;;4993366;28;20436;-67
2023/10/03 08:17:53;;;;;;;16.55;6.90;;;;;;;;;;4992958;28;20026;-67
2023/10/03 08:20:18;;;;;;;;;;;;;;;;;;4993507;28;20018;-67
2023/10/03 08:22:50;;;;;;;20.40;8.13;;;;;;;;;;4993303;28;19905;-67
2023/10/03 08:25:20;;;;;;;14.77;6.47;;;;;;;;;;4992927;28;20041;-67
2023/10/03 08:27:46;;;;;;;17.15;7.57;;;;;;;;;;4993223;28;20034;-67
2023/10/03 08:30:25;;;;;;;17.13;7.10;;;;;;;;;;4992951;28;20018;-67
2023/10/03 08:32:51;;;;;;;16.60;7.40;;;;;;;;;;4995184;28;20033;-67
2023/10/03 08:35:16;;;;;;;17.27;7.13;;;;;;;;;;4996384;28;20093;-67
2023/10/03 08:37:43;;;;;;;17.80;7.67;;;;;;;;;;4996304;28;20061;-67
2023/10/03 08:40:19;;;;;;;19.02;8.82;;;;;;;;;;4996317;28;20812;-66
2023/10/03 08:42:52;;;;;;;17.95;6.93;;;;;;;;;;4996532;28;20029;-67
2023/10/03 08:45:22;;;;;;;17.10;8.02;;;;;;;;;;4996497;28;20026;-67
2023/10/03 08:47:49;;;;;;;15.07;7.15;;;;;;;;;;4996379;28;20022;-67
2023/10/03 08:50:34;;;;;;;20.20;6.70;;;;;;;;;;4996199;28;20381;-67
2023/10/03 08:53:12;;;;;;;22.27;7.20;;;;;;;;;;4996141;28;20473;-67
2023/10/03 08:55:43;;;;;;;18.30;7.25;;;;;;;;;;4995974;28;20026;-67
2023/10/03 08:58:13;;;;;;;17.88;7.15;;;;;;;;;;4996012;28;20029;-67
2023/10/03 09:00:40;;;;;;;21.02;8.93;;;;;;;;;;4996223;28;20542;-67
2023/10/03 09:03:10;;;;;;;28.90;7.72;;;;;;;;;;4996197;28;20018;-67
2023/10/03 09:05:39;;;;;;;26.13;9.07;;;;;;;;;;4996198;28;20385;-67
2023/10/03 09:08:08;;;;;;;19.17;7.18;;;;;;;;;;4995783;28;20080;-67
2023/10/03 09:10:34;;;;;;;19.83;7.63;;;;;;;;;;4960027;28;1076430;-67
2023/10/03 09:13:04;;;;;;;20.38;7.65;;;;;;;;;;4996969;28;20042;-67
2023/10/03 09:15:31;;;;;;;18.52;6.95;;;;;;;;;;4997242;28;20471;-67
2023/10/03 09:17:58;;;;;;;13.55;7.10;;;;;;;;;;4996861;28;20101;-67
2023/10/03 09:20:31;;;;;;;23.27;6.35;;;;;;;;;;4996926;28;20014;-67
2023/10/03 09:23:05;;;;;;;15.65;6.85;;;;;;;;;;4996806;28;20026;-67
2023/10/03 09:25:31;;;;;;;26.60;8.57;;;;;;;;;;4997000;28;20031;-67
2023/10/03 09:28:03;;;;;;;18.92;6.95;;;;;;;;;;4996705;28;20018;-67
2023/10/03 09:30:37;;;;;;;20.25;7.78;;;;;;;;;;4997032;28;20024;-67
2023/10/03 09:33:04;;;;;;;16.38;7.38;;;;;;;;;;4996939;28;20411;-67
2023/10/03 09:35:30;;;;;;;24.75;8.13;;;;;;;;;;4996851;28;20474;-67
2023/10/03 09:37:56;;;;;;;19.55;6.82;;;;;;;;;;4996773;28;20030;-67
2023/10/03 09:40:22;;;;;;;17.98;7.43;;;;;;;;;;4996511;28;20065;-67
2023/10/03 09:42:48;;;;;;;14.93;6.90;;;;;;;;;;4996304;28;20026;-67
2023/10/03 09:45:26;;;;;;;24.58;7.88;;;;;;;;;;4995784;28;20066;-67
2023/10/03 09:47:58;;;;;;;21.85;7.35;;;;;;;;;;4996633;28;20467;-67
2023/10/03 09:50:27;;;;;;;25.40;8.70;;;;;;;;;;4996579;28;20033;-68
2023/10/03 09:52:52;;;;;;;25.75;7.78;;;;;;;;;;4996304;28;20105;-67
2023/10/03 09:55:21;;;;;;;17.43;7.33;;;;;;;;;;4996245;28;20116;-67
2023/10/03 09:57:51;;;;;;;18.42;6.32;;;;;;;;;;4996375;28;20033;-67
2023/10/03 10:03:05;;;;;;;19.88;7.32;;;;;;;;;;4996343;28;20126;-67
2023/10/03 10:05:30;;;;;;;18.27;7.00;;;;;;;;;;4996292;28;20526;-67
2023/10/03 10:08:06;;;;;;;17.75;7.45;;;;;;;;;;4996032;28;20101;-67
2023/10/03 10:10:33;;;;;;;17.65;6.80;;;;;;;;;;4995820;28;20057;-67
2023/10/03 10:13:13;;;;;;;21.80;8.30;;;;;;;;;;4995820;28;20038;-67
2023/10/03 10:15:57;;;;;;;23.45;7.05;;;;;;;;;;4996124;28;20040;-67
2023/10/03 10:18:41;;;;;;;21.80;7.68;;;;;;;;;;4995781;28;20019;-67
2023/10/03 10:21:48;;;;;;;19.25;7.68;;;;;;;;;;4995799;28;20479;-67
2023/10/03 10:26:38;;;;;;;14.27;6.82;;;;;;;;;;4996027;28;20034;-67
2023/10/03 10:29:14;;;;;;;18.00;6.37;;;;;;;;;;4995599;28;20022;-67
2023/10/03 10:31:44;;;;;;;18.33;7.70;;;;;;;;;;4995677;28;20026;-67
2023/10/03 10:34:21;;;;;;;15.55;5.97;;;;;;;;;;4995748;28;20039;-67
2023/10/03 10:36:56;;;;;;;17.85;7.38;;;;;;;;;;4995460;28;20053;-67
2023/10/03 10:39:25;;;;;;;16.65;6.68;;;;;;;;;;4995416;28;20053;-67
2023/10/03 10:42:11;;;;;;;19.08;7.30;;;;;;;;;;4995502;28;20054;-67
2023/10/03 10:44:56;;;;;;;18.48;7.60;;;;;;;;;;4995420;28;20101;-67
2023/10/03 10:47:22;;;;;;;14.95;6.53;;;;;;;;;;4995184;28;20073;-67
2023/10/03 10:49:55;;;;;;;18.55;6.53;;;;;;;;;;4995454;28;20022;-67
2023/10/03 10:52:20;;;;;;;25.77;6.70;;;;;;;;;;4995125;28;20026;-67
2023/10/03 10:54:45;;;;;;;20.23;6.37;;;;;;;;;;4994957;28;20036;-67
2023/10/03 10:57:11;;;;;;;17.23;6.83;;;;;;;;;;4995084;28;20727;-67
2023/10/03 10:59:36;;;;;;;26.17;7.72;;;;;;;;;;4995074;28;20594;-67
2023/10/03 11:02:03;;;;;;;18.10;7.00;;;;;;;;;;4995015;28;20025;-67
2023/10/03 11:04:29;;;;;;;21.13;7.07;;;;;;;;;;4995210;28;20736;-67
2023/10/03 11:06:54;;;;;;;17.27;7.15;;;;;;;;;;4995188;28;20029;-67
2023/10/03 11:09:20;;;;;;;13.75;6.25;;;;;;;;;;4994744;28;20050;-67
2023/10/03 11:11:45;;;;;;;14.07;6.47;;;;;;;;;;4994893;28;20109;-67
2023/10/03 11:14:11;;;;;;;17.67;6.60;;;;;;;;;;4994705;28;20026;-67
2023/10/03 11:16:36;;;;;;;18.23;6.53;;;;;;;;;;4994806;28;20044;-67
2023/10/03 11:19:02;;;;;;;12.27;6.13;;;;;;;;;;4994626;28;20022;-67
2023/10/03 11:21:30;;;;;;;13.75;6.05;;;;;;;;;;4994886;28;20378;-67
2023/10/03 11:24:14;;;;;;;19.20;6.57;;;;;;;;;;4994901;28;20112;-67
2023/10/03 11:26:43;;;;;;;13.00;6.13;;;;;;;;;;4994835;28;20494;-67
2023/10/03 11:29:08;;;;;;;17.77;6.20;;;;;;;;;;4994612;28;20019;-67
2023/10/03 11:31:40;;;;;;;16.55;5.88;;;;;;;;;;4994744;28;20022;-67
2023/10/03 11:34:06;;;;;;;13.90;5.20;;;;;;;;;;4994684;28;20496;-67
2023/10/03 11:36:44;;;;;;;19.02;6.40;;;;;;;;;;4994417;28;20101;-67
2023/10/03 11:39:11;;;;;;;13.20;5.97;;;;;;;;;;4994529;28;20493;-67
2023/10/03 11:41:38;;;;;;;17.60;4.95;;;;;;;;;;4994398;28;20018;-67
2023/10/03 11:44:05;;;;;;;13.70;4.88;;;;;;;;;;4994500;28;20041;-67
2023/10/03 11:46:43;;;;;;;12.60;4.95;;;;;;;;;;4994488;28;20022;-67
2023/10/03 11:49:08;;;;;;;13.15;4.38;;;;;;;;;;4994264;28;20026;-67
2023/10/03 11:51:38;;;;;;;13.60;4.65;;;;;;;;;;4994535;28;20113;-67
2023/10/03 11:54:03;;;;;;;14.75;4.63;;;;;;;;;;4994028;28;20030;-67
2023/10/03 11:56:37;;;;;;;15.60;5.53;;;;;;;;;;4994096;28;20018;-67
2023/10/03 11:59:02;;;;;;;16.73;4.90;;;;;;;;;;4994082;28;20018;-67
2023/10/03 12:01:29;;;;;;;14.10;4.90;;;;;;;;;;4994026;28;20360;-67
2023/10/03 12:03:54;;;;;;;13.27;4.80;;;;;;;;;;4993989;28;20015;-67
2023/10/03 12:06:19;;;;;;;16.98;4.40;;;;;;;;;;4993662;28;20022;-67
2023/10/03 12:08:44;;;;;;;14.05;4.50;;;;;;;;;;4994010;28;20104;-67
2023/10/03 12:11:12;;;;;;;17.67;5.35;;;;;;;;;;4994004;28;20022;-67
2023/10/03 12:13:37;;;;;;;18.52;5.03;;;;;;;;;;4994118;28;20083;-67
2023/10/03 12:16:04;;;;;;;11.18;4.68;;;;;;;;;;4994157;28;20426;-67
2023/10/03 12:18:29;;;;;;;13.35;4.97;;;;;;;;;;4994018;28;20030;-67
2023/10/03 12:20:55;;;;;;;14.88;5.30;;;;;;;;;;4993862;28;20489;-67
2023/10/03 12:23:20;;;;;;;15.27;5.53;;;;;;;;;;4993831;28;20019;-67
2023/10/03 12:25:45;;;;;;;12.73;4.53;;;;;;;;;;4993792;28;20254;-67
2023/10/03 12:28:11;;;;;;;18.45;5.78;;;;;;;;;;4994041;28;20022;-67
2023/10/03 12:30:36;;;;;;;14.90;4.38;;;;;;;;;;4993834;28;20029;-67
2023/10/03 12:33:01;;;;;;;12.88;4.75;;;;;;;;;;4993761;28;20436;-67
2023/10/03 12:35:27;;;;;;;17.92;5.25;;;;;;;;;;4993744;28;20026;-67
2023/10/03 12:37:55;;;;;;;17.35;5.20;;;;;;;;;;4993644;28;20426;-67
2023/10/03 12:40:22;;;;;;;22.60;4.90;;;;;;;;;;4993904;28;20014;-67
2023/10/03 12:42:49;;;;;;;18.40;4.20;;;;;;;;;;4993855;28;20018;-67
2023/10/03 12:45:18;;;;;;;20.42;5.10;;;;;;;;;;4993690;28;20014;-67
2023/10/03 12:47:47;;;;;;;16.80;4.53;;;;;;;;;;4993644;28;20018;-67
2023/10/03 12:50:16;;;;;;;10.73;4.22;;;;;;;;;;4993802;28;20085;-67
2023/10/03 12:52:42;;;;;;;12.35;4.55;;;;;;;;;;4993838;28;20478;-67
2023/10/03 12:55:08;;;;;;;13.80;3.78;;;;;;;;;;4993504;28;20026;-67
2023/10/03 12:57:34;;;;;;;17.67;4.28;;;;;;;;;;4993499;28;20470;-67
2023/10/03 12:59:59;;;;;;;23.00;4.67;;;;;;;;;;4993855;28;20096;-67
2023/10/03 13:02:24;;;;;;;17.43;4.10;;;;;;;;;;4993515;28;20240;-67
2023/10/03 13:04:50;;;;;;;13.88;4.38;;;;;;;;;;4993387;28;20061;-67
2023/10/03 13:07:16;;;;;;;18.13;4.40;;;;;;;;;;4993730;28;20018;-67
2023/10/03 13:09:43;;;;;;;15.27;4.13;;;;;;;;;;4993378;28;20113;-67
2023/10/03 13:12:09;;;;;;;17.98;4.50;;;;;;;;;;4993441;28;20046;-67
2023/10/03 13:14:34;;;;;;;16.60;4.07;;;;;;;;;;4993389;28;20046;-67
2023/10/03 13:17:01;;;;;;;13.98;4.50;;;;;;;;;;4993336;28;20067;-67
2023/10/03 13:19:30;;;;;;;13.98;4.25;;;;;;;;;;4996445;28;20023;-67
2023/10/03 13:21:56;;;;;;;18.05;5.45;;;;;;;;;;4996938;28;20101;-67
2023/10/03 13:24:21;;;;;;;21.98;4.70;;;;;;;;;;4997119;28;20101;-67
2023/10/03 13:26:47;;;;;;;15.63;4.78;;;;;;;;;;4996835;28;20022;-67
2023/10/03 13:29:12;;;;;;;10.57;5.22;;;;;;;;;;4996993;28;20026;-67
2023/10/03 13:31:37;;;;;;;16.77;5.43;;;;;;;;;;4996786;28;20494;-67
2023/10/03 13:34:03;;;;;;;15.63;4.88;;;;;;;;;;4996962;28;20490;-67
2023/10/03 13:36:28;;;;;;;18.17;5.65;;;;;;;;;;4996633;28;20022;-67
2023/10/03 13:38:54;;;;;;;12.97;4.70;;;;;;;;;;4996766;28;20018;-67
2023/10/03 13:41:19;;;;;;;13.18;4.72;;;;;;;;;;4996479;28;20038;-67
2023/10/03 13:43:45;;;;;;;19.60;5.33;;;;;;;;;;4996707;28;20022;-67
2023/10/03 13:46:11;;;;;;;13.02;4.90;;;;;;;;;;4996722;28;20767;-67
2023/10/03 13:48:37;;;;;;;11.45;5.30;;;;;;;;;;4996661;28;20109;-67
2023/10/03 13:51:03;;;;;;;16.75;5.30;;;;;;;;;;4996338;28;20109;-67
2023/10/03 13:53:28;;;;;;;11.73;4.82;;;;;;;;;;4996570;28;20030;-67
2023/10/03 13:55:54;;;;;;;13.70;5.20;;;;;;;;;;4996223;28;20088;-67
2023/10/03 13:58:19;;;;;;;23.63;4.63;;;;;;;;;;4996148;28;20022;-67
2023/10/03 14:00:44;;;;;;;6.83;2.47;;;;;;;;;;4996162;28;20097;-67
2023/10/03 14:03:17;;;;;;;18.10;3.27;;;;;;;;;;4996194;28;20252;-67
2023/10/03 14:05:43;;;;;;;6.28;1.83;;;;;;;;;;4996365;28;20429;-67
2023/10/03 14:08:08;;;;;;;5.82;1.80;;;;;;;;;;4996132;28;20030;-67
2023/10/03 14:10:40;;;;;;;6.07;1.80;;;;;;;;;;4995959;28;20461;-67
2023/10/03 14:13:06;;;;;;;3.92;1.50;;;;;;;;;;4996003;28;20030;-67
2023/10/03 14:15:33;;;;;;;3.95;1.35;;;;;;;;;;4995849;28;20023;-67
2023/10/03 14:17:58;;;;;;;3.67;1.20;;;;;;;;;;4996062;28;20534;-67
2023/10/03 14:20:24;;;;;;;7.47;1.60;;;;;;;;;;4995790;28;20038;-67
2023/10/03 14:22:51;;;;;;;2.65;1.38;;;;;;;;;;4996072;28;20061;-67
2023/10/03 14:25:17;;;;;;;2.63;1.33;;;;;;;;;;4995700;28;20030;-67
2023/10/03 14:27:43;;;;;;;7.28;1.60;;;;;;;;;;4995938;28;20030;-67
2023/10/03 14:30:09;;;;;;;1.80;1.00;;;;;;;;;;4995052;28;20105;-67
2023/10/03 14:32:43;;;;;;;1.83;1.17;;;;;;;;;;4995582;28;20027;-67
2023/10/03 14:35:09;;;;;;;1.50;0.82;;;;;;;;;;4995841;28;20080;-67
2023/10/03 14:37:34;;;;;;;6.95;1.25;;;;;;;;;;4995738;28;20470;-67